sensor_id;sensor_type;location;lat;lon;timestamp;pressure;altitude;pressure_sealevel;temperature;humidity
50632;BME280;49583;45.590;-122.498;2023-04-06T00:01:37;101572.83;;;12.86;49.82
50632;BME280;49583;45.590;-122.498;2023-04-06T00:04:08;101567.97;;;12.83;49.97
50632;BME280;49583;45.590;-122.498;2023-04-06T00:06:20;101563.91;;;12.78;49.99
50632;BME280;49583;45.590;-122.498;2023-04-06T00:08:51;101558.39;;;12.68;50.26
50632;BME280;49583;45.590;-122.498;2023-04-06T00:11:11;101554.30;;;12.59;50.30
50632;BME280;49583;45.590;-122.498;2023-04-06T00:13:42;101558.78;;;12.56;50.92
50632;BME280;49583;45.590;-122.498;2023-04-06T00:16:14;101553.86;;;12.55;50.87
50632;BME280;49583;45.590;-122.498;2023-04-06T00:18:25;101553.95;;;12.52;51.13
50632;BME280;49583;45.590;-122.498;2023-04-06T00:20:39;101552.06;;;12.49;51.05
50632;BME280;49583;45.590;-122.498;2023-04-06T00:22:53;101546.23;;;12.46;51.15
50632;BME280;49583;45.590;-122.498;2023-04-06T00:25:04;101552.67;;;12.46;51.42
50632;BME280;49583;45.590;-122.498;2023-04-06T00:27:36;101554.41;;;12.45;51.76
50632;BME280;49583;45.590;-122.498;2023-04-06T00:29:46;101550.31;;;12.45;51.82
50632;BME280;49583;45.590;-122.498;2023-04-06T00:31:58;101549.14;;;12.43;52.02
50632;BME280;49583;45.590;-122.498;2023-04-06T00:34:09;101545.68;;;12.43;52.25
50632;BME280;49583;45.590;-122.498;2023-04-06T00:36:22;101541.43;;;12.42;52.41
50632;BME280;49583;45.590;-122.498;2023-04-06T00:38:54;101536.84;;;12.41;52.60
50632;BME280;49583;45.590;-122.498;2023-04-06T00:41:04;101536.98;;;12.43;52.62
50632;BME280;49583;45.590;-122.498;2023-04-06T00:43:17;101537.79;;;12.44;52.54
50632;BME280;49583;45.590;-122.498;2023-04-06T00:45:29;101539.00;;;12.45;52.81
50632;BME280;49583;45.590;-122.498;2023-04-06T00:47:59;101535.96;;;12.45;52.65
50632;BME280;49583;45.590;-122.498;2023-04-06T00:50:30;101532.55;;;12.44;52.73
50632;BME280;49583;45.590;-122.498;2023-04-06T00:52:44;101525.23;;;12.43;52.68
50632;BME280;49583;45.590;-122.498;2023-04-06T00:55:06;101522.38;;;12.43;52.57
50632;BME280;49583;45.590;-122.498;2023-04-06T00:57:20;101519.61;;;12.42;52.83
50632;BME280;49583;45.590;-122.498;2023-04-06T00:59:34;101516.84;;;12.44;53.11
50632;BME280;49583;45.590;-122.498;2023-04-06T01:02:07;101516.61;;;12.44;52.81
50632;BME280;49583;45.590;-122.498;2023-04-06T01:04:26;101509.52;;;12.43;53.02
50632;BME280;49583;45.590;-122.498;2023-04-06T01:06:37;101512.42;;;12.43;52.90
50632;BME280;49583;45.590;-122.498;2023-04-06T01:08:48;101506.98;;;12.42;52.85
50632;BME280;49583;45.590;-122.498;2023-04-06T01:11:09;101503.70;;;12.41;52.77
50632;BME280;49583;45.590;-122.498;2023-04-06T01:13:25;101499.45;;;12.40;52.77
50632;BME280;49583;45.590;-122.498;2023-04-06T01:16:01;101496.52;;;12.39;52.86
50632;BME280;49583;45.590;-122.498;2023-04-06T01:18:38;101491.34;;;12.39;52.73
50632;BME280;49583;45.590;-122.498;2023-04-06T01:21:07;101494.21;;;12.40;52.84
50632;BME280;49583;45.590;-122.498;2023-04-06T01:23:48;101492.86;;;12.40;53.04
50632;BME280;49583;45.590;-122.498;2023-04-06T01:26:04;101496.02;;;12.35;52.75
50632;BME280;49583;45.590;-122.498;2023-04-06T01:28:27;101495.10;;;12.29;52.84
50632;BME280;49583;45.590;-122.498;2023-04-06T01:30:57;101491.06;;;12.22;52.61
50632;BME280;49583;45.590;-122.498;2023-04-06T01:33:28;101487.33;;;12.12;52.52
50632;BME280;49583;45.590;-122.498;2023-04-06T01:35:51;101484.46;;;12.05;52.78
50632;BME280;49583;45.590;-122.498;2023-04-06T01:38:02;101482.86;;;12.02;52.97
50632;BME280;49583;45.590;-122.498;2023-04-06T01:40:17;101483.62;;;11.98;53.12
50632;BME280;49583;45.590;-122.498;2023-04-06T01:42:48;101478.79;;;11.93;53.39
50632;BME280;49583;45.590;-122.498;2023-04-06T01:45:19;101472.69;;;11.91;53.74
50632;BME280;49583;45.590;-122.498;2023-04-06T01:47:34;101474.69;;;11.92;53.81
50632;BME280;49583;45.590;-122.498;2023-04-06T01:49:55;101477.19;;;11.92;53.98
50632;BME280;49583;45.590;-122.498;2023-04-06T01:52:17;101477.29;;;11.93;53.87
50632;BME280;49583;45.590;-122.498;2023-04-06T01:54:40;101472.02;;;11.89;53.76
50632;BME280;49583;45.590;-122.498;2023-04-06T01:57:14;101471.47;;;11.84;53.68
50632;BME280;49583;45.590;-122.498;2023-04-06T01:59:45;101466.64;;;11.75;53.65
50632;BME280;49583;45.590;-122.498;2023-04-06T02:02:21;101460.27;;;11.67;53.81
50632;BME280;49583;45.590;-122.498;2023-04-06T02:04:39;101460.27;;;11.67;53.94
50632;BME280;49583;45.590;-122.498;2023-04-06T02:07:11;101453.72;;;11.63;54.09
50632;BME280;49583;45.590;-122.498;2023-04-06T02:09:34;101453.86;;;11.59;54.06
50632;BME280;49583;45.590;-122.498;2023-04-06T02:11:49;101455.52;;;11.54;54.09
50632;BME280;49583;45.590;-122.498;2023-04-06T02:14:19;101447.79;;;11.50;54.42
50632;BME280;49583;45.590;-122.498;2023-04-06T02:16:50;101443.83;;;11.49;54.49
50632;BME280;49583;45.590;-122.498;2023-04-06T02:19:21;101444.21;;;11.45;54.57
50632;BME280;49583;45.590;-122.498;2023-04-06T02:21:35;101444.98;;;11.45;54.78
50632;BME280;49583;45.590;-122.498;2023-04-06T02:23:45;101443.08;;;11.44;54.67
50632;BME280;49583;45.590;-122.498;2023-04-06T02:26:17;101442.11;;;11.44;54.73
50632;BME280;49583;45.590;-122.498;2023-04-06T02:28:37;101434.77;;;11.42;54.87
50632;BME280;49583;45.590;-122.498;2023-04-06T02:30:59;101432.27;;;11.42;54.87
50632;BME280;49583;45.590;-122.498;2023-04-06T02:33:20;101428.86;;;11.41;55.20
50632;BME280;49583;45.590;-122.498;2023-04-06T02:35:34;101429.92;;;11.40;55.56
50632;BME280;49583;45.590;-122.498;2023-04-06T02:37:48;101422.52;;;11.39;55.84
50632;BME280;49583;45.590;-122.498;2023-04-06T02:40:18;101414.18;;;11.37;56.21
50632;BME280;49583;45.590;-122.498;2023-04-06T02:42:40;101410.09;;;11.34;56.16
50632;BME280;49583;45.590;-122.498;2023-04-06T02:45:11;101407.77;;;11.32;56.12
50632;BME280;49583;45.590;-122.498;2023-04-06T02:47:34;101400.60;;;11.31;56.36
50632;BME280;49583;45.590;-122.498;2023-04-06T02:49:49;101396.55;;;11.29;56.28
50632;BME280;49583;45.590;-122.498;2023-04-06T02:52:19;101395.08;;;11.27;56.42
50632;BME280;49583;45.590;-122.498;2023-04-06T02:54:36;101394.15;;;11.26;56.51
50632;BME280;49583;45.590;-122.498;2023-04-06T02:57:01;101393.24;;;11.24;56.58
50632;BME280;49583;45.590;-122.498;2023-04-06T02:59:28;101387.33;;;11.22;56.78
50632;BME280;49583;45.590;-122.498;2023-04-06T03:01:45;101387.27;;;11.20;56.88
50632;BME280;49583;45.590;-122.498;2023-04-06T03:04:07;101384.08;;;11.18;57.00
50632;BME280;49583;45.590;-122.498;2023-04-06T03:06:23;101384.27;;;11.16;57.03
50632;BME280;49583;45.590;-122.498;2023-04-06T03:08:38;101385.99;;;11.14;57.12
50632;BME280;49583;45.590;-122.498;2023-04-06T03:10:49;101386.66;;;11.12;57.25
50632;BME280;49583;45.590;-122.498;2023-04-06T03:13:21;101388.20;;;11.10;57.37
50632;BME280;49583;45.590;-122.498;2023-04-06T03:15:51;101391.39;;;11.06;57.50
50632;BME280;49583;45.590;-122.498;2023-04-06T03:18:13;101388.52;;;11.04;57.42
50632;BME280;49583;45.590;-122.498;2023-04-06T03:20:39;101394.92;;;11.02;57.80
50632;BME280;49583;45.590;-122.498;2023-04-06T03:22:59;101393.88;;;11.01;57.91
50632;BME280;49583;45.590;-122.498;2023-04-06T03:25:21;101391.66;;;11.00;58.19
50632;BME280;49583;45.590;-122.498;2023-04-06T03:27:37;101389.00;;;10.99;58.22
50632;BME280;49583;45.590;-122.498;2023-04-06T03:30:08;101387.59;;;10.97;58.31
50632;BME280;49583;45.590;-122.498;2023-04-06T03:32:29;101387.33;;;10.94;58.47
50632;BME280;49583;45.590;-122.498;2023-04-06T03:34:42;101390.48;;;10.95;58.32
50632;BME280;49583;45.590;-122.498;2023-04-06T03:37:13;101391.40;;;10.94;58.38
50632;BME280;49583;45.590;-122.498;2023-04-06T03:39:29;101394.87;;;10.93;58.48
50632;BME280;49583;45.590;-122.498;2023-04-06T03:41:50;101391.32;;;10.91;58.66
50632;BME280;49583;45.590;-122.498;2023-04-06T03:44:21;101391.83;;;10.90;58.96
50632;BME280;49583;45.590;-122.498;2023-04-06T03:46:52;101391.62;;;10.89;59.10
50632;BME280;49583;45.590;-122.498;2023-04-06T03:49:09;101394.63;;;10.87;59.16
50632;BME280;49583;45.590;-122.498;2023-04-06T03:54:22;101401.05;;;10.89;59.82
50632;BME280;49583;45.590;-122.498;2023-04-06T03:56:46;101399.40;;;10.85;59.75
50632;BME280;49583;45.590;-122.498;2023-04-06T03:59:21;101399.11;;;10.80;59.82
50632;BME280;49583;45.590;-122.498;2023-04-06T04:01:44;101399.10;;;10.78;60.07
50632;BME280;49583;45.590;-122.498;2023-04-06T04:04:17;101399.48;;;10.77;60.29
50632;BME280;49583;45.590;-122.498;2023-04-06T04:06:51;101399.88;;;10.74;60.52
50632;BME280;49583;45.590;-122.498;2023-04-06T04:09:24;101396.36;;;10.71;60.75
50632;BME280;49583;45.590;-122.498;2023-04-06T04:11:49;101397.98;;;10.66;60.93
50632;BME280;49583;45.590;-122.498;2023-04-06T04:14:03;101399.95;;;10.63;61.04
50632;BME280;49583;45.590;-122.498;2023-04-06T04:16:20;101398.30;;;10.60;61.39
50632;BME280;49583;45.590;-122.498;2023-04-06T04:18:42;101399.06;;;10.57;61.39
50632;BME280;49583;45.590;-122.498;2023-04-06T04:21:18;101394.98;;;10.55;61.45
50632;BME280;49583;45.590;-122.498;2023-04-06T04:23:43;101399.25;;;10.54;61.61
50632;BME280;49583;45.590;-122.498;2023-04-06T04:26:08;101402.16;;;10.51;61.63
50632;BME280;49583;45.590;-122.498;2023-04-06T04:28:33;101400.81;;;10.48;61.94
50632;BME280;49583;45.590;-122.498;2023-04-06T04:31:06;101395.55;;;10.46;61.56
50632;BME280;49583;45.590;-122.498;2023-04-06T04:33:23;101395.50;;;10.44;61.77
50632;BME280;49583;45.590;-122.498;2023-04-06T04:35:56;101395.64;;;10.41;62.09
50632;BME280;49583;45.590;-122.498;2023-04-06T04:38:14;101395.66;;;10.39;62.21
50632;BME280;49583;45.590;-122.498;2023-04-06T04:40:38;101396.24;;;10.38;62.26
50632;BME280;49583;45.590;-122.498;2023-04-06T04:43:12;101393.80;;;10.37;62.37
50632;BME280;49583;45.590;-122.498;2023-04-06T04:45:31;101398.29;;;10.36;62.46
50632;BME280;49583;45.590;-122.498;2023-04-06T04:47:52;101398.30;;;10.34;62.83
50632;BME280;49583;45.590;-122.498;2023-04-06T04:50:14;101399.53;;;10.31;63.00
50632;BME280;49583;45.590;-122.498;2023-04-06T04:52:28;101402.47;;;10.28;62.89
50632;BME280;49583;45.590;-122.498;2023-04-06T04:54:55;101398.79;;;10.23;62.74
50632;BME280;49583;45.590;-122.498;2023-04-06T04:57:32;101404.08;;;10.20;62.70
50632;BME280;49583;45.590;-122.498;2023-04-06T05:00:09;101403.88;;;10.12;62.75
50632;BME280;49583;45.590;-122.498;2023-04-06T05:02:46;101405.33;;;10.08;63.23
50632;BME280;49583;45.590;-122.498;2023-04-06T05:05:09;101405.82;;;10.01;62.98
50632;BME280;49583;45.590;-122.498;2023-04-06T05:07:37;101403.88;;;9.97;63.19
50632;BME280;49583;45.590;-122.498;2023-04-06T05:10:00;101406.96;;;9.92;63.33
50632;BME280;49583;45.590;-122.498;2023-04-06T05:12:18;101407.33;;;9.84;63.51
50632;BME280;49583;45.590;-122.498;2023-04-06T05:14:51;101406.90;;;9.79;63.63
50632;BME280;49583;45.590;-122.498;2023-04-06T05:17:10;101401.48;;;9.74;64.11
50632;BME280;49583;45.590;-122.498;2023-04-06T05:19:35;101403.31;;;9.69;64.11
50632;BME280;49583;45.590;-122.498;2023-04-06T05:22:00;101399.10;;;9.62;64.40
50632;BME280;49583;45.590;-122.498;2023-04-06T05:24:34;101398.55;;;9.56;64.59
50632;BME280;49583;45.590;-122.498;2023-04-06T05:26:59;101394.58;;;9.50;65.17
50632;BME280;49583;45.590;-122.498;2023-04-06T05:29:24;101396.29;;;9.41;65.41
50632;BME280;49583;45.590;-122.498;2023-04-06T05:31:58;101391.81;;;9.34;65.44
50632;BME280;49583;45.590;-122.498;2023-04-06T05:34:16;101388.16;;;9.28;65.74
50632;BME280;49583;45.590;-122.498;2023-04-06T05:36:37;101389.89;;;9.23;65.83
50632;BME280;49583;45.590;-122.498;2023-04-06T05:38:59;101387.20;;;9.19;66.19
50632;BME280;49583;45.590;-122.498;2023-04-06T05:41:32;101384.89;;;9.17;66.33
50632;BME280;49583;45.590;-122.498;2023-04-06T05:43:49;101382.52;;;9.12;66.80
50632;BME280;49583;45.590;-122.498;2023-04-06T05:46:23;101382.37;;;9.10;66.62
50632;BME280;49583;45.590;-122.498;2023-04-06T05:48:47;101380.44;;;9.06;66.80
50632;BME280;49583;45.590;-122.498;2023-04-06T05:51:22;101377.17;;;9.03;66.95
50632;BME280;49583;45.590;-122.498;2023-04-06T05:53:46;101373.02;;;8.98;66.79
50632;BME280;49583;45.590;-122.498;2023-04-06T05:56:20;101373.24;;;8.96;67.26
50632;BME280;49583;45.590;-122.498;2023-04-06T05:58:35;101374.48;;;8.92;67.26
50632;BME280;49583;45.590;-122.498;2023-04-06T06:01:09;101361.78;;;8.84;67.87
50632;BME280;49583;45.590;-122.498;2023-04-06T06:03:27;101368.58;;;8.82;67.99
50632;BME280;49583;45.590;-122.498;2023-04-06T06:05:51;101364.66;;;8.78;67.98
50632;BME280;49583;45.590;-122.498;2023-04-06T06:08:10;101366.05;;;8.73;68.39
50632;BME280;49583;45.590;-122.498;2023-04-06T06:10:44;101366.33;;;8.72;68.77
50632;BME280;49583;45.590;-122.498;2023-04-06T06:13:18;101363.84;;;8.67;69.07
50632;BME280;49583;45.590;-122.498;2023-04-06T06:15:52;101359.69;;;8.61;69.04
50632;BME280;49583;45.590;-122.498;2023-04-06T06:18:27;101358.24;;;8.54;69.07
50632;BME280;49583;45.590;-122.498;2023-04-06T06:21:00;101356.71;;;8.48;69.79
50632;BME280;49583;45.590;-122.498;2023-04-06T06:23:19;101354.98;;;8.45;69.56
50632;BME280;49583;45.590;-122.498;2023-04-06T06:25:42;101356.33;;;8.41;69.99
50632;BME280;49583;45.590;-122.498;2023-04-06T06:28:01;101349.41;;;8.38;70.11
50632;BME280;49583;45.590;-122.498;2023-04-06T06:30:35;101352.14;;;8.36;70.17
50632;BME280;49583;45.590;-122.498;2023-04-06T06:32:52;101344.29;;;8.33;70.51
50632;BME280;49583;45.590;-122.498;2023-04-06T06:35:26;101343.73;;;8.29;71.17
50632;BME280;49583;45.590;-122.498;2023-04-06T06:38:00;101337.48;;;8.24;71.34
50632;BME280;49583;45.590;-122.498;2023-04-06T06:40:35;101331.19;;;8.18;71.53
50632;BME280;49583;45.590;-122.498;2023-04-06T06:42:59;101327.27;;;8.15;71.58
50632;BME280;49583;45.590;-122.498;2023-04-06T06:45:32;101322.58;;;8.10;71.98
50632;BME280;49583;45.590;-122.498;2023-04-06T06:47:50;101321.56;;;8.06;71.86
50632;BME280;49583;45.590;-122.498;2023-04-06T06:50:11;101317.41;;;8.03;72.05
50632;BME280;49583;45.590;-122.498;2023-04-06T06:52:27;101315.77;;;8.02;71.93
50632;BME280;49583;45.590;-122.498;2023-04-06T06:55:00;101312.95;;;7.98;72.35
50632;BME280;49583;45.590;-122.498;2023-04-06T06:57:18;101310.57;;;7.95;72.47
50632;BME280;49583;45.590;-122.498;2023-04-06T06:59:31;101312.27;;;7.94;72.48
50632;BME280;49583;45.590;-122.498;2023-04-06T07:01:54;101307.75;;;7.93;72.90
50632;BME280;49583;45.590;-122.498;2023-04-06T07:04:28;101302.63;;;7.89;73.10
50632;BME280;49583;45.590;-122.498;2023-04-06T07:06:52;101302.42;;;7.86;73.12
50632;BME280;49583;45.590;-122.498;2023-04-06T07:09:15;101301.55;;;7.88;72.94
50632;BME280;49583;45.590;-122.498;2023-04-06T07:11:33;101304.92;;;7.86;73.28
50632;BME280;49583;45.590;-122.498;2023-04-06T07:14:10;101297.20;;;7.83;73.77
50632;BME280;49583;45.590;-122.498;2023-04-06T07:16:45;101297.44;;;7.79;73.79
50632;BME280;49583;45.590;-122.498;2023-04-06T07:19:15;101293.55;;;7.76;74.23
50632;BME280;49583;45.590;-122.498;2023-04-06T07:21:49;101291.30;;;7.72;74.05
50632;BME280;49583;45.590;-122.498;2023-04-06T07:24:23;101289.02;;;7.70;74.42
50632;BME280;49583;45.590;-122.498;2023-04-06T07:26:41;101288.23;;;7.66;74.95
50632;BME280;49583;45.590;-122.498;2023-04-06T07:29:00;101281.66;;;7.60;74.70
50632;BME280;49583;45.590;-122.498;2023-04-06T07:31:25;101281.85;;;7.55;74.86
50632;BME280;49583;45.590;-122.498;2023-04-06T07:34:00;101285.51;;;7.55;75.20
50632;BME280;49583;45.590;-122.498;2023-04-06T07:36:23;101281.87;;;7.52;75.20
50632;BME280;49583;45.590;-122.498;2023-04-06T07:38:56;101283.65;;;7.50;75.42
50632;BME280;49583;45.590;-122.498;2023-04-06T07:41:29;101282.37;;;7.47;76.21
50632;BME280;49583;45.590;-122.498;2023-04-06T07:44:03;101281.83;;;7.44;76.14
50632;BME280;49583;45.590;-122.498;2023-04-06T07:46:37;101283.35;;;7.41;76.26
50632;BME280;49583;45.590;-122.498;2023-04-06T07:49:11;101277.33;;;7.39;76.20
50632;BME280;49583;45.590;-122.498;2023-04-06T07:51:45;101275.39;;;7.38;76.54
50632;BME280;49583;45.590;-122.498;2023-04-06T07:54:18;101275.39;;;7.38;76.33
50632;BME280;49583;45.590;-122.498;2023-04-06T07:56:53;101273.30;;;7.38;76.31
50632;BME280;49583;45.590;-122.498;2023-04-06T07:59:26;101274.75;;;7.39;76.25
50632;BME280;49583;45.590;-122.498;2023-04-06T08:01:40;101270.65;;;7.40;76.57
50632;BME280;49583;45.590;-122.498;2023-04-06T08:04:13;101269.73;;;7.40;76.41
50632;BME280;49583;45.590;-122.498;2023-04-06T08:06:30;101267.09;;;7.38;76.45
50632;BME280;49583;45.590;-122.498;2023-04-06T08:08:46;101261.55;;;7.38;76.55
50632;BME280;49583;45.590;-122.498;2023-04-06T08:11:09;101260.06;;;7.38;76.47
50632;BME280;49583;45.590;-122.498;2023-04-06T08:13:36;101257.99;;;7.37;76.53
50632;BME280;49583;45.590;-122.498;2023-04-06T08:16:09;101257.44;;;7.36;76.63
50632;BME280;49583;45.590;-122.498;2023-04-06T08:18:33;101250.16;;;7.35;76.70
50632;BME280;49583;45.590;-122.498;2023-04-06T08:20:46;101245.34;;;7.33;76.67
50632;BME280;49583;45.590;-122.498;2023-04-06T08:23:20;101241.56;;;7.34;77.08
50632;BME280;49583;45.590;-122.498;2023-04-06T08:25:38;101242.98;;;7.32;77.16
50632;BME280;49583;45.590;-122.498;2023-04-06T08:28:05;101246.81;;;7.31;76.81
50632;BME280;49583;45.590;-122.498;2023-04-06T08:30:42;101250.84;;;7.34;77.00
50632;BME280;49583;45.590;-122.498;2023-04-06T08:33:16;101246.30;;;7.34;76.88
50632;BME280;49583;45.590;-122.498;2023-04-06T08:35:41;101245.00;;;7.34;76.95
50632;BME280;49583;45.590;-122.498;2023-04-06T08:37:54;101246.73;;;7.34;77.26
50632;BME280;49583;45.590;-122.498;2023-04-06T08:40:30;101243.88;;;7.34;77.39
50632;BME280;49583;45.590;-122.498;2023-04-06T08:42:48;101248.59;;;7.32;77.33
50632;BME280;49583;45.590;-122.498;2023-04-06T08:45:08;101248.42;;;7.32;77.17
50632;BME280;49583;45.590;-122.498;2023-04-06T08:47:43;101240.23;;;7.34;77.27
50632;BME280;49583;45.590;-122.498;2023-04-06T08:50:16;101239.33;;;7.34;77.29
50632;BME280;49583;45.590;-122.498;2023-04-06T08:52:40;101234.45;;;7.35;77.54
50632;BME280;49583;45.590;-122.498;2023-04-06T08:55:18;101233.88;;;7.34;77.19
50632;BME280;49583;45.590;-122.498;2023-04-06T08:57:35;101235.20;;;7.35;77.21
50632;BME280;49583;45.590;-122.498;2023-04-06T08:59:52;101226.51;;;7.36;77.18
50632;BME280;49583;45.590;-122.498;2023-04-06T09:02:07;101224.55;;;7.35;77.19
50632;BME280;49583;45.590;-122.498;2023-04-06T09:04:28;101217.92;;;7.35;77.28
50632;BME280;49583;45.590;-122.498;2023-04-06T09:07:03;101212.11;;;7.33;77.56
50632;BME280;49583;45.590;-122.498;2023-04-06T09:09:36;101211.30;;;7.31;77.64
50632;BME280;49583;45.590;-122.498;2023-04-06T09:12:04;101199.48;;;7.28;77.90
50632;BME280;49583;45.590;-122.498;2023-04-06T09:14:42;101192.67;;;7.26;77.95
50632;BME280;49583;45.590;-122.498;2023-04-06T09:16:59;101185.50;;;7.26;77.94
50632;BME280;49583;45.590;-122.498;2023-04-06T09:19:33;101180.40;;;7.27;77.90
50632;BME280;49583;45.590;-122.498;2023-04-06T09:22:08;101174.73;;;7.30;77.86
50632;BME280;49583;45.590;-122.498;2023-04-06T09:24:26;101168.52;;;7.32;77.89
50632;BME280;49583;45.590;-122.498;2023-04-06T09:26:52;101160.52;;;7.33;77.93
50632;BME280;49583;45.590;-122.498;2023-04-06T09:29:10;101157.70;;;7.36;77.92
50632;BME280;49583;45.590;-122.498;2023-04-06T09:31:34;101150.94;;;7.38;78.05
50632;BME280;49583;45.590;-122.498;2023-04-06T09:33:59;101150.80;;;7.40;78.12
50632;BME280;49583;45.590;-122.498;2023-04-06T09:36:16;101149.73;;;7.43;78.12
50632;BME280;49583;45.590;-122.498;2023-04-06T09:38:57;101147.81;;;7.46;77.96
50632;BME280;49583;45.590;-122.498;2023-04-06T09:41:31;101151.29;;;7.48;78.06
50632;BME280;49583;45.590;-122.498;2023-04-06T09:43:48;101142.17;;;7.46;78.03
50632;BME280;49583;45.590;-122.498;2023-04-06T09:46:02;101139.14;;;7.44;78.26
50632;BME280;49583;45.590;-122.498;2023-04-06T09:48:18;101138.23;;;7.43;78.09
50632;BME280;49583;45.590;-122.498;2023-04-06T09:50:39;101136.73;;;7.42;78.10
50632;BME280;49583;45.590;-122.498;2023-04-06T09:53:12;101133.20;;;7.42;78.23
50632;BME280;49583;45.590;-122.498;2023-04-06T09:55:45;101134.90;;;7.41;78.20
50632;BME280;49583;45.590;-122.498;2023-04-06T09:58:19;101134.52;;;7.42;78.04
50632;BME280;49583;45.590;-122.498;2023-04-06T10:00:51;101130.25;;;7.42;78.31
50632;BME280;49583;45.590;-122.498;2023-04-06T10:03:14;101131.70;;;7.41;78.38
50632;BME280;49583;45.590;-122.498;2023-04-06T10:05:57;101127.98;;;7.38;78.54
50632;BME280;49583;45.590;-122.498;2023-04-06T10:08:34;101127.46;;;7.34;78.78
50632;BME280;49583;45.590;-122.498;2023-04-06T10:11:12;101128.33;;;7.31;78.68
50632;BME280;49583;45.590;-122.498;2023-04-06T10:13:31;101127.40;;;7.29;78.76
50632;BME280;49583;45.590;-122.498;2023-04-06T10:16:06;101123.55;;;7.26;79.04
50632;BME280;49583;45.590;-122.498;2023-04-06T10:18:42;101121.30;;;7.23;79.38
50632;BME280;49583;45.590;-122.498;2023-04-06T10:21:11;101115.39;;;7.20;79.52
50632;BME280;49583;45.590;-122.498;2023-04-06T10:23:32;101107.61;;;7.16;80.06
50632;BME280;49583;45.590;-122.498;2023-04-06T10:25:59;101103.84;;;7.13;80.00
50632;BME280;49583;45.590;-122.498;2023-04-06T10:28:30;101107.73;;;7.11;80.00
50632;BME280;49583;45.590;-122.498;2023-04-06T10:30:58;101099.54;;;7.09;80.06
50632;BME280;49583;45.590;-122.498;2023-04-06T10:33:35;101098.13;;;7.07;80.71
50632;BME280;49583;45.590;-122.498;2023-04-06T10:36:22;101096.38;;;7.04;80.70
50632;BME280;49583;45.590;-122.498;2023-04-06T10:38:53;101093.15;;;7.02;81.20
50632;BME280;49583;45.590;-122.498;2023-04-06T10:41:12;101093.66;;;6.99;80.89
50632;BME280;49583;45.590;-122.498;2023-04-06T10:43:38;101091.33;;;6.97;80.98
50632;BME280;49583;45.590;-122.498;2023-04-06T10:46:00;101083.77;;;6.96;81.26
50632;BME280;49583;45.590;-122.498;2023-04-06T10:48:41;101085.43;;;6.95;81.88
50632;BME280;49583;45.590;-122.498;2023-04-06T10:51:10;101087.48;;;6.94;81.41
50632;BME280;49583;45.590;-122.498;2023-04-06T10:53:44;101083.60;;;6.94;81.27
50632;BME280;49583;45.590;-122.498;2023-04-06T10:56:02;101079.60;;;6.93;81.35
50632;BME280;49583;45.590;-122.498;2023-04-06T10:58:35;101082.02;;;6.94;81.47
50632;BME280;49583;45.590;-122.498;2023-04-06T11:01:13;101074.52;;;6.93;81.32
50632;BME280;49583;45.590;-122.498;2023-04-06T11:03:48;101068.48;;;6.94;81.26
50632;BME280;49583;45.590;-122.498;2023-04-06T11:06:20;101065.95;;;6.93;81.37
50632;BME280;49583;45.590;-122.498;2023-04-06T11:08:55;101063.27;;;6.91;81.53
50632;BME280;49583;45.590;-122.498;2023-04-06T11:11:29;101064.61;;;6.92;81.44
50632;BME280;49583;45.590;-122.498;2023-04-06T11:14:00;101065.38;;;6.92;81.56
50632;BME280;49583;45.590;-122.498;2023-04-06T11:16:24;101056.88;;;6.92;81.68
50632;BME280;49583;45.590;-122.498;2023-04-06T11:18:56;101058.07;;;6.92;81.79
50632;BME280;49583;45.590;-122.498;2023-04-06T11:21:31;101054.10;;;6.92;81.83
50632;BME280;49583;45.590;-122.498;2023-04-06T11:24:17;101051.19;;;6.91;81.73
50632;BME280;49583;45.590;-122.498;2023-04-06T11:26:36;101053.20;;;6.93;81.75
50632;BME280;49583;45.590;-122.498;2023-04-06T11:28:53;101042.83;;;6.92;81.92
50632;BME280;49583;45.590;-122.498;2023-04-06T11:31:18;101042.24;;;6.91;81.97
50632;BME280;49583;45.590;-122.498;2023-04-06T11:33:37;101044.33;;;6.91;81.82
50632;BME280;49583;45.590;-122.498;2023-04-06T11:36:13;101042.73;;;6.90;82.14
50632;BME280;49583;45.590;-122.498;2023-04-06T11:38:32;101041.33;;;6.88;82.12
50632;BME280;49583;45.590;-122.498;2023-04-06T11:40:57;101037.89;;;6.89;82.35
50632;BME280;49583;45.590;-122.498;2023-04-06T11:43:16;101039.27;;;6.89;82.85
50632;BME280;49583;45.590;-122.498;2023-04-06T11:45:44;101040.73;;;6.87;82.81
50632;BME280;49583;45.590;-122.498;2023-04-06T11:48:02;101035.02;;;6.86;82.90
50632;BME280;49583;45.590;-122.498;2023-04-06T11:50:25;101031.45;;;6.84;83.01
50632;BME280;49583;45.590;-122.498;2023-04-06T11:53:04;101034.55;;;6.84;82.87
50632;BME280;49583;45.590;-122.498;2023-04-06T11:55:21;101029.05;;;6.84;82.72
50632;BME280;49583;45.590;-122.498;2023-04-06T11:57:55;101026.27;;;6.85;83.15
50632;BME280;49583;45.590;-122.498;2023-04-06T12:00:20;101027.13;;;6.83;83.26
50632;BME280;49583;45.590;-122.498;2023-04-06T12:02:37;101023.02;;;6.84;83.19
50632;BME280;49583;45.590;-122.498;2023-04-06T12:04:52;101022.45;;;6.83;83.04
50632;BME280;49583;45.590;-122.498;2023-04-06T12:07:19;101017.27;;;6.82;83.19
50632;BME280;49583;45.590;-122.498;2023-04-06T12:09:46;101014.91;;;6.81;83.30
50632;BME280;49583;45.590;-122.498;2023-04-06T12:12:03;101009.31;;;6.81;83.18
50632;BME280;49583;45.590;-122.498;2023-04-06T12:14:37;101012.59;;;6.82;83.32
50632;BME280;49583;45.590;-122.498;2023-04-06T12:16:54;101012.05;;;6.82;83.27
50632;BME280;49583;45.590;-122.498;2023-04-06T12:19:30;101000.67;;;6.81;83.62